createdAt,value
2018-09-27T00:01:45.766Z,63.15
2018-09-27T00:04:14.169Z,63.03
2018-09-27T00:06:42.649Z,62.74
2018-09-27T00:09:11.053Z,62.82
2018-09-27T00:11:39.494Z,63.50
2018-09-27T00:14:07.963Z,62.71
2018-09-27T00:16:36.389Z,62.68
2018-09-27T00:19:05.050Z,63.59
2018-09-27T00:21:33.488Z,63.85
2018-09-27T00:24:01.915Z,63.86
2018-09-27T00:26:30.359Z,63.50
2018-09-27T00:28:58.771Z,63.57
2018-09-27T00:31:27.162Z,63.68
2018-09-27T00:33:55.598Z,63.77
2018-09-27T00:36:24.019Z,63.69
2018-09-27T00:38:52.463Z,64.32
2018-09-27T00:41:20.864Z,64.65
2018-09-27T00:43:49.306Z,64.04
2018-09-27T00:46:24.379Z,64.34
2018-09-27T00:48:52.803Z,64.71
2018-09-27T00:51:21.237Z,65.45
2018-09-27T00:53:49.649Z,65.21
2018-09-27T00:56:18.046Z,65.36
2018-09-27T00:58:46.461Z,64.67
2018-09-27T01:01:14.857Z,64.47
2018-09-27T01:03:43.297Z,64.31
2018-09-27T01:06:11.705Z,64.72
2018-09-27T01:08:40.163Z,64.28
2018-09-27T01:11:08.573Z,63.42
2018-09-27T01:13:36.996Z,63.13
2018-09-27T01:16:05.407Z,63.43
2018-09-27T01:18:33.963Z,63.53
2018-09-27T01:21:02.522Z,63.05
2018-09-27T01:23:30.930Z,63.21
2018-09-27T01:25:59.426Z,63.81
2018-09-27T01:28:27.828Z,63.94
2018-09-27T01:30:56.269Z,63.87
2018-09-27T01:33:24.675Z,63.22
2018-09-27T01:35:53.133Z,62.84
2018-09-27T01:38:21.530Z,63.28
2018-09-27T01:40:49.978Z,62.93
2018-09-27T01:43:18.422Z,63.10
2018-09-27T01:45:46.845Z,62.45
2018-09-27T01:48:15.475Z,62.47
2018-09-27T01:50:43.941Z,62.07
2018-09-27T01:53:12.338Z,62.41
2018-09-27T01:55:40.774Z,62.31
2018-09-27T01:58:09.186Z,62.67
2018-09-27T02:00:37.642Z,62.21
2018-09-27T02:03:06.073Z,62.62
2018-09-27T02:05:34.517Z,62.90
2018-09-27T02:08:02.918Z,61.94
2018-09-27T02:10:31.362Z,61.71
2018-09-27T02:12:59.772Z,61.79
2018-09-27T02:15:28.166Z,62.12
2018-09-27T02:17:56.616Z,61.93
2018-09-27T02:20:25.025Z,61.91
2018-09-27T02:22:53.637Z,61.54
2018-09-27T02:25:22.058Z,61.47
2018-09-27T02:27:50.481Z,61.45
2018-09-27T02:30:18.878Z,61.53
2018-09-27T02:32:47.313Z,61.93
2018-09-27T02:35:15.713Z,60.83
2018-09-27T02:37:44.167Z,61.11
2018-09-27T02:40:12.579Z,61.58
2018-09-27T02:42:41.005Z,61.51
2018-09-27T02:45:09.448Z,61.67
2018-09-27T02:47:37.882Z,62.44
2018-09-27T02:50:06.349Z,61.73
2018-09-27T02:52:34.813Z,61.94
2018-09-27T02:55:03.648Z,61.92
2018-09-27T02:57:32.086Z,62.30
2018-09-27T03:00:00.504Z,61.58
2018-09-27T03:02:28.973Z,62.00
2018-09-27T03:04:57.382Z,61.61
2018-09-27T03:07:25.797Z,61.83
2018-09-27T03:09:54.239Z,61.77
2018-09-27T03:12:22.628Z,62.64
2018-09-27T03:14:51.054Z,62.23
2018-09-27T03:17:19.445Z,62.33
2018-09-27T03:19:54.469Z,61.99
2018-09-27T03:22:22.863Z,62.83
2018-09-27T03:24:51.298Z,61.50
2018-09-27T03:27:19.709Z,61.48
2018-09-27T03:29:48.137Z,61.30
2018-09-27T03:32:16.612Z,61.27
2018-09-27T03:34:45.130Z,61.78
2018-09-27T03:37:13.565Z,61.85
2018-09-27T03:39:42.037Z,61.76
2018-09-27T03:42:10.485Z,61.83
2018-09-27T03:44:38.957Z,62.06
2018-09-27T03:47:07.396Z,61.05
2018-09-27T03:49:35.866Z,61.16
2018-09-27T03:52:04.307Z,61.44
2018-09-27T03:54:32.746Z,60.95
2018-09-27T03:57:01.975Z,61.00
2018-09-27T03:59:30.663Z,60.52
2018-09-27T04:01:59.050Z,60.46
2018-09-27T04:04:27.501Z,60.24
2018-09-27T04:06:55.932Z,60.63
2018-09-27T04:09:24.325Z,60.39
2018-09-27T04:11:52.763Z,60.59
2018-09-27T04:14:21.162Z,61.62
2018-09-27T04:16:49.619Z,61.89
2018-09-27T04:19:18.042Z,62.05
2018-09-27T04:21:46.542Z,62.31
2018-09-27T04:24:14.916Z,62.18
2018-09-27T04:26:43.350Z,61.60
2018-09-27T04:29:11.754Z,61.10
2018-09-27T04:31:40.206Z,60.59
2018-09-27T04:34:08.799Z,61.31
2018-09-27T04:36:37.279Z,61.89
2018-09-27T04:39:08.725Z,62.32
2018-09-27T04:41:37.282Z,62.26
2018-09-27T04:44:05.674Z,62.63
2018-09-27T04:46:34.112Z,62.44
2018-09-27T04:49:02.967Z,61.63
2018-09-27T04:51:31.425Z,61.54
2018-09-27T04:53:59.798Z,61.83
2018-09-27T04:56:28.222Z,62.11
2018-09-27T04:58:56.593Z,62.52
2018-09-27T05:01:25.009Z,62.27
2018-09-27T05:03:53.482Z,61.83
2018-09-27T05:06:21.902Z,61.62
2018-09-27T05:08:50.330Z,61.02
2018-09-27T05:11:18.717Z,60.98
2018-09-27T05:13:47.126Z,60.30
2018-09-27T05:16:15.511Z,61.02
2018-09-27T05:18:44.045Z,60.58
2018-09-27T05:21:12.441Z,60.94
2018-09-27T05:23:40.851Z,60.53
2018-09-27T05:26:09.238Z,60.24
2018-09-27T05:28:37.650Z,61.29
2018-09-27T05:31:06.068Z,60.33
2018-09-27T05:33:34.553Z,60.78
2018-09-27T05:36:04.094Z,60.87
2018-09-27T05:38:32.582Z,59.84
2018-09-27T05:41:00.973Z,59.85
2018-09-27T05:43:29.381Z,60.72
2018-09-27T05:45:57.817Z,59.46
2018-09-27T05:48:26.281Z,59.72
2018-09-27T05:50:54.758Z,59.46
2018-09-27T05:53:23.218Z,59.62
2018-09-27T05:55:51.717Z,59.99
2018-09-27T05:58:20.097Z,59.51
2018-09-27T06:00:49.104Z,60.55
2018-09-27T06:03:17.623Z,60.61
2018-09-27T06:05:46.071Z,60.71
2018-09-27T06:08:14.477Z,60.26
2018-09-27T06:10:43.730Z,60.03
2018-09-27T06:13:12.169Z,59.79
2018-09-27T06:15:40.651Z,58.81
2018-09-27T06:18:09.061Z,59.11
2018-09-27T06:20:39.466Z,58.72
2018-09-27T06:23:07.858Z,57.81
2018-09-27T06:25:36.318Z,57.75
2018-09-27T06:28:04.734Z,57.36
2018-09-27T06:30:33.480Z,57.54
2018-09-27T06:33:01.960Z,57.40
2018-09-27T06:35:30.419Z,57.78
2018-09-27T06:37:58.834Z,56.86
2018-09-27T06:40:27.282Z,56.50
2018-09-27T06:42:55.674Z,56.79
2018-09-27T06:45:24.143Z,56.37
2018-09-27T06:47:52.623Z,55.67
2018-09-27T06:50:21.059Z,55.78
2018-09-27T06:52:49.573Z,55.27
2018-09-27T06:55:18.240Z,55.97
2018-09-27T06:57:46.423Z,54.97
2018-09-27T07:00:14.840Z,54.89
2018-09-27T07:02:43.333Z,55.32
2018-09-27T07:05:11.756Z,54.55
2018-09-27T07:07:40.193Z,54.53
2018-09-27T07:10:08.619Z,54.19
2018-09-27T07:12:37.101Z,54.38
2018-09-27T07:15:05.554Z,54.50
2018-09-27T07:17:33.989Z,53.76
2018-09-27T07:20:02.411Z,53.64
2018-09-27T07:22:30.848Z,53.43
2018-09-27T07:24:59.292Z,53.01
2018-09-27T07:27:27.794Z,52.79
2018-09-27T07:29:56.188Z,51.50
2018-09-27T07:32:24.629Z,51.18
2018-09-27T07:34:53.038Z,51.00
2018-09-27T07:37:21.509Z,50.85
2018-09-27T07:39:49.910Z,50.49
2018-09-27T07:42:18.367Z,50.14
2018-09-27T07:44:46.804Z,48.87
2018-09-27T07:47:15.233Z,48.47
2018-09-27T07:49:43.682Z,47.83
2018-09-27T07:52:12.166Z,47.71
2018-09-27T07:54:40.668Z,48.42
2018-09-27T07:57:09.330Z,47.84
2018-09-27T07:59:39.378Z,48.03
2018-09-27T08:02:07.881Z,47.12
2018-09-27T08:04:36.385Z,47.56
2018-09-27T08:07:04.829Z,46.03
2018-09-27T08:09:33.258Z,45.79
2018-09-27T08:12:02.026Z,46.35
2018-09-27T08:14:30.416Z,45.18
2018-09-27T08:16:58.917Z,45.45
2018-09-27T08:19:27.306Z,44.79
2018-09-27T08:21:55.718Z,45.33
2018-09-27T08:24:24.150Z,44.84
2018-09-27T08:26:52.553Z,43.78
2018-09-27T08:29:21.022Z,43.90
2018-09-27T08:31:49.446Z,44.11
2018-09-27T08:34:17.889Z,43.73
2018-09-27T08:36:46.294Z,43.97
2018-09-27T08:39:14.740Z,44.16
2018-09-27T08:41:43.166Z,42.75
2018-09-27T08:44:12.221Z,42.46
2018-09-27T08:46:41.647Z,42.04
2018-09-27T08:49:10.063Z,41.98
2018-09-27T08:51:38.754Z,43.08
2018-09-27T08:54:07.254Z,43.04
2018-09-27T08:56:35.705Z,43.00
2018-09-27T08:59:04.588Z,42.46
2018-09-27T09:01:33.032Z,41.73
2018-09-27T09:04:02.156Z,41.27
2018-09-27T09:06:30.611Z,40.87
2018-09-27T09:08:59.025Z,40.66
2018-09-27T09:11:27.459Z,40.95
2018-09-27T09:13:55.862Z,41.11
2018-09-27T09:16:24.306Z,40.83
2018-09-27T09:18:52.709Z,40.31
2018-09-27T09:21:21.145Z,40.35
2018-09-27T09:23:49.537Z,39.32
2018-09-27T09:26:17.973Z,39.44
2018-09-27T09:28:46.398Z,39.52
2018-09-27T09:31:14.863Z,39.81
2018-09-27T09:33:43.308Z,39.66
2018-09-27T09:36:12.006Z,39.83
2018-09-27T09:38:40.415Z,39.07
2018-09-27T09:41:08.811Z,38.43
2018-09-27T09:43:37.270Z,38.25
2018-09-27T09:46:05.726Z,38.46
2018-09-27T09:48:34.169Z,37.92
2018-09-27T09:51:03.482Z,37.60
2018-09-27T09:53:31.934Z,37.82
2018-09-27T09:56:00.345Z,37.84
2018-09-27T09:58:28.867Z,37.55
2018-09-27T10:00:57.294Z,37.26
2018-09-27T10:03:25.746Z,38.67
2018-09-27T10:05:54.151Z,38.11
2018-09-27T10:08:22.621Z,38.19
2018-09-27T10:10:51.034Z,38.29
2018-09-27T10:13:19.473Z,38.24
2018-09-27T10:15:47.883Z,38.15
2018-09-27T10:18:16.330Z,37.94
2018-09-27T10:20:44.773Z,38.22
2018-09-27T10:23:13.222Z,38.28
2018-09-27T10:25:41.658Z,37.51
2018-09-27T10:28:10.121Z,37.48
2018-09-27T10:30:38.551Z,37.79
2018-09-27T10:33:06.990Z,37.78
2018-09-27T10:35:35.447Z,37.49
2018-09-27T10:38:04.173Z,37.71
2018-09-27T10:40:32.989Z,36.65
2018-09-27T10:43:02.016Z,36.68
2018-09-27T10:45:30.466Z,36.36
2018-09-27T10:47:58.862Z,36.31
2018-09-27T10:50:27.354Z,36.55
2018-09-27T10:52:55.762Z,36.77
2018-09-27T10:55:24.198Z,35.81
2018-09-27T10:57:52.726Z,36.55
2018-09-27T11:00:28.012Z,37.46
2018-09-27T11:02:56.518Z,37.81
2018-09-27T11:05:25.020Z,37.37
2018-09-27T11:07:53.462Z,37.50
2018-09-27T11:10:21.990Z,37.10
2018-09-27T11:12:54.313Z,36.82
2018-09-27T11:15:27.749Z,37.48
2018-09-27T11:17:56.290Z,37.52
2018-09-27T11:20:24.738Z,37.50
2018-09-27T11:22:53.175Z,38.12
2018-09-27T11:25:21.634Z,39.83
2018-09-27T11:27:50.150Z,38.82
2018-09-27T11:30:23.978Z,40.20
2018-09-27T11:32:52.434Z,39.41
2018-09-27T11:35:20.882Z,39.12
2018-09-27T11:37:49.339Z,39.25
2018-09-27T11:40:17.766Z,39.56
2018-09-27T11:42:46.310Z,38.70
2018-09-27T11:45:15.724Z,39.16
2018-09-27T11:47:44.196Z,38.73
2018-09-27T11:50:12.686Z,38.86
2018-09-27T11:52:43.730Z,39.52
2018-09-27T11:55:12.787Z,39.13
2018-09-27T11:57:42.156Z,38.72
2018-09-27T12:00:10.610Z,39.55
2018-09-27T12:02:39.144Z,39.15
2018-09-27T12:05:07.660Z,38.86
2018-09-27T12:07:36.323Z,38.80
2018-09-27T12:10:04.764Z,39.81
2018-09-27T12:12:33.646Z,38.75
2018-09-27T12:15:02.663Z,38.33
2018-09-27T12:17:31.333Z,38.48
2018-09-27T12:19:59.960Z,38.81
2018-09-27T12:22:29.184Z,38.47
2018-09-27T12:24:58.189Z,38.33
2018-09-27T12:27:26.847Z,37.98
2018-09-27T12:29:56.238Z,38.33
2018-09-27T12:32:24.708Z,38.06
2018-09-27T12:34:53.318Z,38.95
2018-09-27T12:37:21.822Z,38.41
2018-09-27T12:39:50.313Z,38.78
2018-09-27T12:42:18.936Z,37.64
2018-09-27T12:44:47.336Z,38.13
2018-09-27T12:47:15.803Z,38.46
2018-09-27T12:49:45.331Z,38.48
2018-09-27T12:52:14.551Z,37.47
2018-09-27T12:54:42.796Z,37.61
2018-09-27T12:57:11.409Z,36.81
2018-09-27T12:59:40.569Z,37.05
2018-09-27T13:02:09.612Z,36.36
2018-09-27T13:04:38.134Z,36.35
2018-09-27T13:07:06.724Z,35.88
2018-09-27T13:09:36.037Z,36.42
2018-09-27T13:12:04.503Z,35.22
2018-09-27T13:14:33.659Z,35.57
2018-09-27T13:17:02.164Z,35.18
2018-09-27T13:19:31.450Z,34.80
2018-09-27T13:21:59.882Z,34.27
2018-09-27T13:24:28.440Z,34.91
2018-09-27T13:26:57.756Z,36.04
2018-09-27T13:29:27.441Z,35.42
2018-09-27T13:31:55.959Z,35.31
2018-09-27T13:34:24.490Z,36.03
2018-09-27T13:36:54.786Z,35.68
2018-09-27T13:39:23.302Z,35.86
2018-09-27T13:41:51.802Z,35.44
2018-09-27T13:44:20.225Z,35.08
2018-09-27T13:46:48.714Z,36.60
2018-09-27T13:49:17.763Z,36.50
2018-09-27T13:51:46.383Z,36.28
2018-09-27T13:54:21.438Z,36.29
2018-09-27T13:56:50.049Z,35.88
2018-09-27T13:59:18.482Z,36.34
2018-09-27T14:01:47.010Z,36.43
2018-09-27T14:04:15.505Z,35.92
2018-09-27T14:06:44.024Z,36.13
2018-09-27T14:09:12.534Z,35.47
2018-09-27T14:11:41.165Z,36.24
2018-09-27T14:14:09.660Z,34.40
2018-09-27T14:16:38.143Z,34.55
2018-09-27T14:19:06.650Z,34.24
2018-09-27T14:21:35.290Z,33.76
2018-09-27T14:24:03.749Z,34.68
2018-09-27T14:26:32.410Z,34.63
2018-09-27T14:29:00.920Z,33.97
2018-09-27T14:31:29.411Z,32.15
2018-09-27T14:33:58.904Z,32.56
2018-09-27T14:36:28.252Z,32.06
2018-09-27T14:38:56.855Z,32.22
2018-09-27T14:41:26.090Z,31.51
2018-09-27T14:43:54.538Z,31.83
2018-09-27T14:46:27.927Z,30.68
2018-09-27T14:49:03.504Z,30.17
2018-09-27T14:51:33.369Z,29.64
2018-09-27T14:54:02.713Z,29.32
2018-09-27T14:56:31.993Z,27.86
2018-09-27T14:59:01.211Z,27.20
2018-09-27T15:01:29.718Z,26.25
2018-09-27T15:03:59.617Z,24.72
2018-09-27T15:06:29.144Z,23.78
2018-09-27T15:08:58.299Z,21.26
2018-09-27T15:11:26.810Z,20.67
2018-09-27T15:13:56.470Z,20.39
2018-09-27T15:16:27.252Z,18.58
2018-09-27T15:18:56.472Z,17.64
2018-09-27T15:21:25.161Z,17.23
2018-09-27T15:23:55.373Z,16.06
2018-09-27T15:26:27.584Z,16.00
2018-09-27T15:28:56.784Z,15.77
2018-09-27T15:31:26.337Z,16.34
2018-09-27T15:33:55.113Z,16.66
2018-09-27T15:36:23.673Z,16.74
2018-09-27T15:38:53.171Z,16.30
2018-09-27T15:41:21.723Z,16.69
2018-09-27T15:43:50.228Z,16.68
2018-09-27T15:46:19.731Z,16.93
2018-09-27T15:48:48.169Z,15.49
2018-09-27T15:51:16.763Z,16.45
2018-09-27T15:53:45.858Z,16.06
2018-09-27T15:56:16.137Z,16.92
2018-09-27T15:58:44.725Z,17.51
2018-09-27T16:01:13.234Z,16.39
2018-09-27T16:03:41.832Z,18.32
2018-09-27T16:06:10.995Z,20.87
2018-09-27T16:08:40.059Z,22.34
2018-09-27T16:11:08.733Z,26.59
2018-09-27T16:13:37.940Z,27.88
2018-09-27T16:16:06.617Z,30.33
2018-09-27T16:18:36.407Z,33.06
2018-09-27T16:21:05.623Z,33.79
2018-09-27T16:23:34.168Z,35.30
2018-09-27T16:26:02.790Z,37.32
2018-09-27T16:28:31.241Z,37.53
2018-09-27T16:31:00.568Z,39.59
2018-09-27T16:35:56.461Z,40.93
2018-09-27T16:38:26.120Z,41.82
2018-09-27T16:40:54.914Z,42.44
2018-09-27T16:43:23.390Z,43.00
2018-09-27T16:45:51.938Z,43.92
2018-09-27T16:48:20.449Z,44.57
2018-09-27T16:50:49.039Z,44.40
2018-09-27T16:53:17.807Z,44.75
2018-09-27T16:55:47.303Z,45.39
2018-09-27T16:58:16.050Z,45.63
2018-09-27T17:00:45.418Z,46.69
2018-09-27T17:03:19.383Z,46.63
2018-09-27T17:05:49.748Z,47.08
2018-09-27T17:08:18.673Z,47.03
2018-09-27T17:10:47.307Z,47.68
2018-09-27T17:13:15.884Z,47.39
2018-09-27T17:15:44.783Z,47.76
2018-09-27T17:18:13.547Z,48.01
2018-09-27T17:20:43.865Z,48.24
2018-09-27T17:23:12.933Z,48.38
2018-09-27T17:25:42.552Z,49.02
2018-09-27T17:28:14.690Z,49.80
2018-09-27T17:30:45.617Z,49.36
2018-09-27T17:33:15.640Z,49.42
2018-09-27T17:35:45.215Z,49.96
2018-09-27T17:38:14.641Z,50.13
2018-09-27T17:40:43.818Z,50.87
2018-09-27T17:43:12.254Z,51.07
2018-09-27T17:45:40.999Z,51.28
2018-09-27T17:48:09.525Z,50.87
2018-09-27T17:50:40.585Z,51.42
2018-09-27T17:53:09.252Z,51.24
2018-09-27T17:55:37.857Z,51.03
2018-09-27T17:58:06.225Z,51.88
2018-09-27T18:00:35.262Z,51.34
2018-09-27T18:03:03.801Z,52.21
2018-09-27T18:05:32.467Z,51.36
2018-09-27T18:08:00.958Z,51.54
2018-09-27T18:10:29.466Z,51.91
2018-09-27T18:12:57.909Z,52.00
2018-09-27T18:15:26.455Z,52.27
2018-09-27T18:20:38.154Z,52.20
2018-09-27T18:23:06.736Z,52.37
2018-09-27T18:28:11.183Z,52.24
2018-09-27T18:30:39.623Z,51.99
2018-09-27T18:33:08.034Z,52.70
2018-09-27T18:35:36.515Z,52.51
2018-09-27T18:38:05.145Z,52.43
2018-09-27T18:40:33.390Z,52.34
2018-09-27T18:43:01.943Z,52.59
2018-09-27T18:45:30.359Z,52.69
2018-09-27T18:47:58.811Z,52.59
2018-09-27T18:50:27.242Z,52.43
2018-09-27T18:52:55.722Z,53.06
2018-09-27T18:55:25.042Z,51.99
2018-09-27T18:57:53.474Z,51.40
2018-09-27T19:00:21.880Z,51.09
2018-09-27T19:02:50.322Z,51.38
2018-09-27T19:05:18.759Z,51.37
2018-09-27T19:07:47.210Z,51.28
2018-09-27T19:10:15.630Z,51.52
2018-09-27T19:12:44.122Z,51.47
2018-09-27T19:15:12.602Z,51.69
2018-09-27T19:17:41.049Z,51.80
2018-09-27T19:20:09.475Z,52.08
2018-09-27T19:22:37.968Z,52.21
2018-09-27T19:25:06.491Z,52.11
2018-09-27T19:27:35.648Z,51.98
2018-09-27T19:30:04.246Z,52.36
2018-09-27T19:32:32.791Z,52.38
2018-09-27T19:35:02.930Z,52.66
2018-09-27T19:37:31.342Z,52.81
2018-09-27T19:39:59.806Z,52.95
2018-09-27T19:42:28.216Z,53.08
2018-09-27T19:44:56.662Z,53.75
2018-09-27T19:47:25.070Z,53.65
2018-09-27T19:49:53.517Z,53.67
2018-09-27T19:52:22.075Z,53.71
2018-09-27T19:54:50.513Z,53.86
2018-09-27T19:57:18.911Z,54.09
2018-09-27T19:59:47.365Z,54.24
2018-09-27T20:02:15.795Z,54.71
2018-09-27T20:04:44.270Z,55.00
2018-09-27T20:07:12.659Z,55.03
2018-09-27T20:09:41.226Z,55.32
2018-09-27T20:12:09.645Z,55.35
2018-09-27T20:14:38.069Z,55.70
2018-09-27T20:17:06.627Z,55.72
2018-09-27T20:19:35.066Z,55.99
2018-09-27T20:22:03.691Z,55.92
2018-09-27T20:24:32.094Z,55.65
2018-09-27T20:27:00.505Z,56.06
2018-09-27T20:29:28.909Z,56.10
2018-09-27T20:31:57.334Z,56.11
2018-09-27T20:34:25.778Z,56.27
2018-09-27T20:36:54.202Z,56.01
2018-09-27T20:39:22.629Z,56.16
2018-09-27T20:41:51.059Z,56.13
2018-09-27T20:44:19.526Z,56.18
2018-09-27T20:46:47.974Z,56.09
2018-09-27T20:49:16.384Z,55.91
2018-09-27T20:51:45.490Z,56.04
2018-09-27T20:54:13.934Z,56.50
2018-09-27T20:56:42.381Z,56.37
2018-09-27T20:59:10.785Z,56.28
2018-09-27T21:01:39.286Z,56.46
2018-09-27T21:04:08.072Z,56.55
2018-09-27T21:06:36.517Z,56.29
2018-09-27T21:16:05.111Z,56.71
2018-09-27T21:18:33.554Z,56.78
2018-09-27T21:21:02.628Z,56.87
2018-09-27T21:23:31.050Z,55.75
2018-09-27T21:25:59.445Z,56.52
2018-09-27T21:28:27.878Z,56.54
2018-09-27T21:30:56.278Z,56.29
2018-09-27T21:33:24.715Z,56.56
2018-09-27T21:35:53.114Z,56.18
2018-09-27T21:38:21.546Z,55.89
2018-09-27T21:40:49.969Z,55.92
2018-09-27T21:43:18.449Z,56.65
2018-09-27T21:45:46.825Z,57.56
2018-09-27T21:48:15.258Z,57.62
2018-09-27T21:50:44.010Z,58.79
2018-09-27T21:53:12.522Z,58.66
2018-09-27T21:55:40.934Z,58.18
2018-09-27T21:58:09.366Z,58.19
2018-09-27T22:00:37.793Z,58.08
2018-09-27T22:03:06.265Z,58.17
2018-09-27T22:05:34.684Z,57.05
2018-09-27T22:08:03.342Z,58.32
2018-09-27T22:10:31.733Z,58.30
2018-09-27T22:13:00.134Z,57.59
2018-09-27T22:15:28.562Z,58.57
2018-09-27T22:17:56.950Z,58.72
2018-09-27T22:20:25.405Z,59.80
2018-09-27T22:22:53.794Z,59.49
2018-09-27T22:25:22.218Z,60.47
2018-09-27T22:27:50.609Z,60.76
2018-09-27T22:30:19.033Z,60.31
2018-09-27T22:32:47.430Z,60.63
2018-09-27T22:35:15.858Z,61.06
2018-09-27T22:37:44.257Z,60.59
2018-09-27T22:40:12.749Z,60.50
2018-09-27T22:42:41.129Z,61.21
2018-09-27T22:45:09.569Z,61.15
2018-09-27T22:47:37.970Z,61.29
2018-09-27T22:50:06.425Z,60.77
2018-09-27T22:52:34.862Z,61.09
2018-09-27T22:55:03.710Z,60.97
2018-09-27T22:57:32.121Z,62.09
2018-09-27T23:00:00.562Z,62.14
2018-09-27T23:02:28.955Z,61.93
2018-09-27T23:04:57.578Z,62.39
2018-09-27T23:07:25.986Z,62.41
2018-09-27T23:09:54.471Z,62.14
2018-09-27T23:12:22.890Z,61.69
2018-09-27T23:14:51.289Z,62.35
2018-09-27T23:17:19.761Z,62.01
2018-09-27T23:19:48.186Z,61.61
2018-09-27T23:22:16.647Z,61.68
2018-09-27T23:24:45.078Z,62.68
2018-09-27T23:27:13.518Z,61.97
2018-09-27T23:29:41.925Z,62.56
2018-09-27T23:32:10.381Z,62.60
2018-09-27T23:34:38.791Z,62.43
2018-09-27T23:37:07.498Z,62.21
2018-09-27T23:39:35.908Z,62.74
2018-09-27T23:42:04.354Z,62.83
2018-09-27T23:44:32.743Z,62.27
2018-09-27T23:47:02.058Z,62.80
2018-09-27T23:49:30.442Z,62.05
2018-09-27T23:51:58.923Z,62.57
2018-09-27T23:54:27.318Z,61.58
2018-09-27T23:56:55.759Z,62.71
2018-09-27T23:59:24.151Z,62.44
